Time;durP1;ratioP1;P1;durP2;ratioP2;P2;SDS_P1;SDS_P2;PMS_P1;PMS_P2;Temp;Humidity;BMP_temperature;BMP_pressure;BME280_temperature;BME280_humidity;BME280_pressure;Samples;Min_cycle;Max_cycle;Signal;HPM_P1;HPM_P2
2021/09/24 00:00:21;;;;;;;4.97;2.38;;;19.70;52.70;;;;;;5074106;28;20709;-46
2021/09/24 00:02:52;;;;;;;4.78;2.08;;;19.60;52.60;;;;;;5073936;28;20245;-47
2021/09/24 00:05:27;;;;;;;4.78;1.83;;;19.60;52.60;;;;;;5073855;28;20257;-47
2021/09/24 00:07:57;;;;;;;5.35;2.03;;;19.60;52.50;;;;;;5074088;28;20747;-55
2021/09/24 00:10:30;;;;;;;5.07;1.75;;;19.70;52.50;;;;;;5073858;28;20660;-46
2021/09/24 00:13:01;;;;;;;4.40;1.88;;;19.70;52.50;;;;;;5072951;28;20279;-52
2021/09/24 00:15:31;;;;;;;4.95;1.95;;;19.70;52.40;;;;;;5073292;28;20237;-49
2021/09/24 00:18:02;;;;;;;3.70;1.77;;;19.70;52.40;;;;;;5073460;28;20258;-47
2021/09/24 00:20:35;;;;;;;7.00;1.98;;;19.70;52.40;;;;;;5072128;28;20241;-46
2021/09/24 00:23:06;;;;;;;9.60;2.00;;;19.70;52.30;;;;;;5073666;28;20209;-57
2021/09/24 00:25:36;;;;;;;7.68;2.38;;;19.70;51.90;;;;;;5070087;28;20219;-45
2021/09/24 00:28:08;;;;;;;5.80;2.08;;;19.70;51.70;;;;;;5068010;28;20258;-45
2021/09/24 00:30:39;;;;;;;6.63;2.20;;;19.80;51.70;;;;;;5073064;28;20224;-47
2021/09/24 00:33:09;;;;;;;8.48;2.15;;;19.80;51.70;;;;;;5064795;28;20230;-47
2021/09/24 00:35:41;;;;;;;6.85;2.13;;;19.80;51.70;;;;;;5069005;28;20245;-46
2021/09/24 00:38:12;;;;;;;7.10;2.17;;;19.80;51.80;;;;;;5057700;28;20262;-47
2021/09/24 00:40:42;;;;;;;7.30;2.10;;;19.80;52.30;;;;;;5071254;28;20230;-45
2021/09/24 00:43:13;;;;;;;5.25;2.28;;;19.80;51.80;;;;;;5072339;28;20229;-46
2021/09/24 00:45:43;;;;;;;6.15;2.20;;;19.80;51.90;;;;;;5071566;28;20231;-46
2021/09/24 00:48:14;;;;;;;6.47;2.03;;;19.80;51.90;;;;;;5069716;28;20250;-49
2021/09/24 00:50:46;;;;;;;4.93;2.20;;;19.80;52.00;;;;;;5069790;28;20277;-47
2021/09/24 00:53:16;;;;;;;8.15;2.38;;;19.80;52.10;;;;;;5072151;28;20269;-46
2021/09/24 00:55:47;;;;;;;6.10;2.33;;;19.90;52.10;;;;;;5072252;28;20292;-50
2021/09/24 00:58:17;;;;;;;4.55;2.05;;;19.90;52.10;;;;;;5072140;28;20242;-47
2021/09/24 01:00:48;;;;;;;5.07;2.30;;;19.90;52.00;;;;;;5072869;28;20237;-46
2021/09/24 01:03:18;;;;;;;6.03;2.20;;;19.90;51.90;;;;;;5071301;28;20256;-46
2021/09/24 01:05:51;;;;;;;5.35;2.30;;;20.00;52.00;;;;;;5069849;28;20237;-49
2021/09/24 01:08:21;;;;;;;8.23;2.60;;;19.90;51.80;;;;;;5071755;28;20226;-46
2021/09/24 01:10:52;;;;;;;5.55;1.92;;;20.00;52.00;;;;;;5071882;28;20258;-50
2021/09/24 01:13:22;;;;;;;5.28;1.98;;;20.00;52.00;;;;;;5070550;28;20667;-45
2021/09/24 01:15:53;;;;;;;5.63;2.13;;;20.00;52.00;;;;;;5071140;28;20230;-45
2021/09/24 01:18:25;;;;;;;7.28;2.13;;;20.00;51.80;;;;;;5070907;28;20254;-46
2021/09/24 01:20:58;;;;;;;7.13;2.13;;;20.10;51.80;;;;;;5071701;28;20191;-47
2021/09/24 01:23:30;;;;;;;5.13;2.10;;;20.10;51.70;;;;;;5071863;28;20633;-47
2021/09/24 01:26:04;;;;;;;6.40;2.20;;;20.10;51.70;;;;;;5066533;28;20868;-47
2021/09/24 01:28:34;;;;;;;6.72;2.10;;;20.10;51.70;;;;;;5051188;28;20300;-45
2021/09/24 01:31:05;;;;;;;6.45;1.95;;;20.10;51.60;;;;;;5050172;28;20259;-47
2021/09/24 01:33:35;;;;;;;6.75;2.17;;;20.10;51.60;;;;;;5066028;28;20238;-46
2021/09/24 01:36:06;;;;;;;7.38;2.13;;;20.10;51.60;;;;;;5070396;28;20230;-46
2021/09/24 01:38:38;;;;;;;6.53;2.05;;;20.20;51.60;;;;;;5067445;28;20598;-51
2021/09/24 01:41:08;;;;;;;7.75;2.35;;;20.20;51.50;;;;;;5068591;28;20207;-47
2021/09/24 01:43:39;;;;;;;7.00;2.22;;;20.20;51.50;;;;;;5071927;28;20226;-52
2021/09/24 01:46:10;;;;;;;6.45;2.35;;;20.30;51.50;;;;;;5071074;28;20229;-46
2021/09/24 01:48:40;;;;;;;8.00;2.45;;;20.30;51.50;;;;;;5071835;28;20319;-50
2021/09/24 01:51:11;;;;;;;5.25;1.92;;;20.30;51.40;;;;;;5071891;28;20595;-45
2021/09/24 01:53:43;;;;;;;9.23;2.60;;;20.40;51.50;;;;;;5070893;28;20451;-51
2021/09/24 01:56:13;;;;;;;6.93;2.42;;;20.40;51.50;;;;;;5071432;28;20222;-45
2021/09/24 01:58:44;;;;;;;5.32;2.20;;;20.40;51.50;;;;;;5070556;28;20246;-46
2021/09/24 02:01:14;;;;;;;6.43;1.95;;;20.40;51.50;;;;;;5071521;28;20234;-47
2021/09/24 02:03:45;;;;;;;5.75;1.95;;;20.40;51.60;;;;;;5070383;28;20245;-49
2021/09/24 02:06:15;;;;;;;6.68;1.98;;;20.50;51.60;;;;;;5070912;28;20190;-50
2021/09/24 02:08:47;;;;;;;6.45;1.98;;;20.50;51.70;;;;;;5071156;28;20640;-49
2021/09/24 02:11:18;;;;;;;4.32;1.63;;;20.50;51.70;;;;;;5070612;28;20261;-46
2021/09/24 02:13:48;;;;;;;3.65;1.63;;;20.50;51.70;;;;;;5055418;28;20199;-46
2021/09/24 02:16:19;;;;;;;5.13;2.05;;;20.50;51.80;;;;;;5051759;28;20234;-47
2021/09/24 02:18:49;;;;;;;4.38;1.80;;;20.50;51.80;;;;;;5051228;28;20273;-48
2021/09/24 02:21:20;;;;;;;4.40;1.77;;;20.60;51.90;;;;;;5051605;28;20291;-45
2021/09/24 02:23:52;;;;;;;3.35;1.55;;;20.60;51.90;;;;;;5051443;28;20254;-47
2021/09/24 02:26:22;;;;;;;3.65;1.88;;;20.60;51.80;;;;;;5050647;28;20227;-48
2021/09/24 02:28:53;;;;;;;5.22;1.60;;;20.70;51.80;;;;;;5068419;28;20242;-45
2021/09/24 02:31:25;;;;;;;6.13;1.98;;;20.70;51.70;;;;;;5066199;28;20254;-51
2021/09/24 02:33:56;;;;;;;6.18;1.73;;;20.80;51.60;;;;;;5070164;28;20687;-46
2021/09/24 02:36:29;;;;;;;4.70;1.60;;;20.80;51.50;;;;;;5070207;28;20580;-48
2021/09/24 02:39:01;;;;;;;4.90;1.58;;;20.80;51.40;;;;;;5069614;28;20257;-54
2021/09/24 02:41:32;;;;;;;4.57;1.80;;;20.80;51.30;;;;;;5053360;28;20203;-48
2021/09/24 02:44:02;;;;;;;4.60;1.83;;;20.90;51.20;;;;;;5050416;28;20222;-47
2021/09/24 02:46:33;;;;;;;4.82;1.80;;;20.90;51.20;;;;;;5050638;28;20242;-53
2021/09/24 02:49:03;;;;;;;3.60;1.55;;;20.90;51.10;;;;;;5049837;28;20259;-45
2021/09/24 02:51:33;;;;;;;3.63;1.33;;;20.90;51.00;;;;;;5067202;28;20309;-45
2021/09/24 02:54:06;;;;;;;2.42;1.15;;;21.00;51.10;;;;;;5070020;28;20233;-45
2021/09/24 02:56:36;;;;;;;5.50;1.65;;;21.00;50.90;;;;;;5070539;28;20260;-47
2021/09/24 02:59:07;;;;;;;5.10;1.40;;;21.00;50.80;;;;;;5069978;28;20261;-44
2021/09/24 03:01:38;;;;;;;2.55;1.42;;;21.10;50.60;;;;;;5068874;28;20230;-45
2021/09/24 03:04:08;;;;;;;2.85;1.20;;;21.10;50.60;;;;;;5069164;28;20206;-44
2021/09/24 03:06:38;;;;;;;3.00;1.30;;;21.20;50.50;;;;;;5066117;28;20248;-48
2021/09/24 03:09:11;;;;;;;2.10;1.20;;;21.20;50.30;;;;;;5069325;28;20293;-49
2021/09/24 03:11:41;;;;;;;3.20;1.50;;;21.30;50.00;;;;;;5069255;28;20661;-46
2021/09/24 03:14:12;;;;;;;2.58;1.40;;;21.30;49.90;;;;;;5066192;28;20238;-45
2021/09/24 03:16:43;;;;;;;3.33;1.33;;;21.30;49.80;;;;;;5051902;28;20227;-46
2021/09/24 03:19:18;;;;;;;2.47;1.23;;;21.40;49.70;;;;;;5048537;28;20216;-45
2021/09/24 03:21:48;;;;;;;2.97;0.98;;;21.40;49.40;;;;;;5064401;28;20226;-49
2021/09/24 03:24:20;;;;;;;2.03;1.05;;;21.40;49.40;;;;;;5069414;28;20595;-46
2021/09/24 03:26:51;;;;;;;2.35;1.10;;;21.50;49.30;;;;;;5068776;28;20572;-47
2021/09/24 03:29:21;;;;;;;2.25;1.00;;;21.50;49.00;;;;;;5070021;28;20684;-50
2021/09/24 03:31:52;;;;;;;1.88;0.93;;;21.60;49.00;;;;;;5069603;28;20266;-44
2021/09/24 03:34:22;;;;;;;1.67;0.93;;;21.60;48.80;;;;;;5070172;28;20722;-46
2021/09/24 03:36:53;;;;;;;1.95;1.20;;;21.60;48.70;;;;;;5068362;28;20287;-46
2021/09/24 03:39:27;;;;;;;1.88;0.93;;;21.60;48.50;;;;;;5069475;28;20223;-48
2021/09/24 03:42:01;;;;;;;2.45;1.02;;;21.70;48.40;;;;;;5068998;28;20230;-45
2021/09/24 03:44:31;;;;;;;1.92;0.93;;;21.70;48.40;;;;;;5070166;28;20256;-45
2021/09/24 03:47:02;;;;;;;2.58;1.20;;;21.70;48.50;;;;;;5071091;28;20287;-49
2021/09/24 03:49:32;;;;;;;1.92;1.05;;;21.80;48.40;;;;;;5072922;28;20247;-46
2021/09/24 03:52:02;;;;;;;1.10;1.00;;;21.80;48.20;;;;;;5061518;28;20317;-53
2021/09/24 03:54:35;;;;;;;1.67;1.00;;;21.80;48.70;;;;;;5052914;28;20292;-46
2021/09/24 03:57:05;;;;;;;1.45;1.10;;;21.90;48.00;;;;;;5053095;28;20231;-45
2021/09/24 03:59:36;;;;;;;1.38;0.95;;;21.90;47.70;;;;;;5053327;28;20246;-48
2021/09/24 04:02:07;;;;;;;2.78;1.02;;;21.90;47.50;;;;;;5055811;28;20656;-49
2021/09/24 04:04:37;;;;;;;1.42;0.80;;;22.00;47.30;;;;;;5072779;28;20238;-45
2021/09/24 04:07:07;;;;;;;1.40;0.90;;;22.00;47.10;;;;;;5071979;28;20234;-45
2021/09/24 04:09:40;;;;;;;1.20;0.60;;;22.00;47.30;;;;;;5073183;28;20286;-45
2021/09/24 04:12:11;;;;;;;2.10;0.85;;;22.00;47.20;;;;;;5073193;28;20261;-48
2021/09/24 04:14:41;;;;;;;1.20;1.00;;;22.10;47.50;;;;;;5071628;28;20665;-52
2021/09/24 04:17:12;;;;;;;1.77;1.10;;;22.10;47.60;;;;;;5064436;28;20610;-46
2021/09/24 04:19:42;;;;;;;1.88;1.13;;;22.10;47.70;;;;;;5071900;28;20198;-50
2021/09/24 04:22:13;;;;;;;2.50;0.95;;;22.10;47.60;;;;;;5069596;28;20289;-46
2021/09/24 04:24:45;;;;;;;1.98;0.90;;;22.10;47.50;;;;;;5071967;28;20194;-45
2021/09/24 04:27:15;;;;;;;1.60;0.90;;;22.20;47.50;;;;;;5054001;28;20238;-45
2021/09/24 04:29:46;;;;;;;1.60;0.90;;;22.20;47.40;;;;;;5052810;28;20243;-44
2021/09/24 04:32:16;;;;;;;2.03;0.90;;;22.20;47.30;;;;;;5056393;28;20319;-46
2021/09/24 04:34:47;;;;;;;3.00;0.98;;;22.30;47.20;;;;;;5071936;28;20242;-46
2021/09/24 04:37:17;;;;;;;2.47;0.93;;;22.30;47.30;;;;;;5072576;28;20230;-48
2021/09/24 04:39:49;;;;;;;2.63;1.10;;;22.30;47.10;;;;;;5070529;28;20234;-46
2021/09/24 04:42:20;;;;;;;1.83;0.80;;;22.30;47.10;;;;;;5072201;28;20234;-46
2021/09/24 04:44:50;;;;;;;2.05;1.00;;;22.40;47.00;;;;;;5069516;28;20222;-46
2021/09/24 04:47:21;;;;;;;2.05;1.00;;;22.40;46.90;;;;;;5072684;28;20230;-51
2021/09/24 04:49:51;;;;;;;1.50;0.90;;;22.40;46.70;;;;;;5071698;28;20202;-46
2021/09/24 04:52:22;;;;;;;1.73;0.93;;;22.40;46.60;;;;;;5072215;28;20371;-46
2021/09/24 04:54:55;;;;;;;1.73;1.08;;;22.40;46.50;;;;;;5071248;28;20252;-50
2021/09/24 04:57:29;;;;;;;2.20;1.00;;;22.40;46.40;;;;;;5052347;28;20227;-46
2021/09/24 04:59:59;;;;;;;1.40;0.73;;;22.50;46.40;;;;;;5052814;28;20238;-49
2021/09/24 05:02:29;;;;;;;1.27;0.90;;;22.50;45.70;;;;;;5057436;28;20242;-55
2021/09/24 05:05:00;;;;;;;2.20;0.90;;;22.50;45.60;;;;;;5072398;28;20226;-47
2021/09/24 05:07:30;;;;;;;2.13;1.10;;;22.50;45.10;;;;;;5072043;28;20254;-49
2021/09/24 05:10:03;;;;;;;1.90;0.95;;;22.50;44.70;;;;;;5072798;28;20234;-50
2021/09/24 05:12:33;;;;;;;1.90;1.08;;;22.50;44.30;;;;;;5071808;28;20296;-49
2021/09/24 05:15:03;;;;;;;2.05;1.02;;;22.50;44.10;;;;;;5072326;28;20222;-46
2021/09/24 05:17:34;;;;;;;5.28;1.27;;;22.50;44.10;;;;;;5071030;28;20250;-51
2021/09/24 05:20:04;;;;;;;1.95;1.23;;;22.50;43.00;;;;;;5071962;28;20226;-46
2021/09/24 05:22:35;;;;;;;3.92;1.25;;;22.50;42.90;;;;;;5071766;28;20202;-54
2021/09/24 05:25:08;;;;;;;3.13;1.30;;;22.50;43.40;;;;;;5070874;28;20288;-51
2021/09/24 05:27:38;;;;;;;2.60;1.30;;;22.50;42.80;;;;;;5070785;28;20257;-49
2021/09/24 05:30:09;;;;;;;3.25;1.23;;;22.50;42.30;;;;;;5072225;28;20202;-46
2021/09/24 05:32:47;;;;;;;3.25;1.38;;;22.50;41.20;;;;;;5072230;28;20671;-54
2021/09/24 05:35:18;;;;;;;3.67;1.15;;;22.50;41.50;;;;;;5072285;28;20651;-57
2021/09/24 05:37:48;;;;;;;2.03;0.88;;;22.50;42.20;;;;;;5072135;28;20370;-45
2021/09/24 05:40:20;;;;;;;3.00;1.30;;;22.50;42.00;;;;;;5072076;28;20710;-46
2021/09/24 05:42:51;;;;;;;2.22;1.10;;;22.50;43.30;;;;;;5072113;28;20684;-54
2021/09/24 05:45:22;;;;;;;2.95;1.27;;;22.50;42.90;;;;;;5071928;28;20198;-50
2021/09/24 05:47:52;;;;;;;3.45;1.08;;;22.50;42.80;;;;;;5072155;28;20261;-53
2021/09/24 05:50:23;;;;;;;4.57;1.45;;;22.50;42.40;;;;;;5071836;28;20238;-46
2021/09/24 05:52:54;;;;;;;3.58;1.30;;;22.40;42.50;;;;;;5070669;28;20195;-49
2021/09/24 05:55:26;;;;;;;3.10;1.58;;;22.40;42.60;;;;;;5071160;28;20226;-48
2021/09/24 05:57:59;;;;;;;2.65;1.30;;;22.40;42.60;;;;;;5071055;28;20264;-48
2021/09/24 06:00:30;;;;;;;2.88;1.20;;;22.40;42.80;;;;;;5071303;28;20226;-45
2021/09/24 06:03:00;;;;;;;3.25;1.35;;;22.40;42.70;;;;;;5071071;28;20230;-48
2021/09/24 06:05:30;;;;;;;5.32;1.25;;;22.40;42.80;;;;;;5071366;28;20282;-55
2021/09/24 06:08:01;;;;;;;2.85;1.35;;;22.40;43.00;;;;;;5071392;28;20250;-47
2021/09/24 06:10:33;;;;;;;3.33;1.17;;;22.40;43.30;;;;;;5070681;28;20191;-52
2021/09/24 06:13:04;;;;;;;4.53;1.63;;;22.40;44.20;;;;;;5071459;28;20199;-49
2021/09/24 06:15:34;;;;;;;3.25;1.17;;;22.40;43.70;;;;;;5071577;28;20222;-55
2021/09/24 06:18:04;;;;;;;3.55;1.20;;;22.30;43.80;;;;;;5071024;28;20279;-58
2021/09/24 06:20:35;;;;;;;1.95;1.15;;;22.30;43.90;;;;;;5070936;28;20198;-48
2021/09/24 06:23:05;;;;;;;2.60;1.30;;;22.30;43.90;;;;;;5062606;28;20231;-48
2021/09/24 06:25:38;;;;;;;2.65;1.17;;;22.30;44.00;;;;;;5051018;28;20234;-46
2021/09/24 06:28:08;;;;;;;2.42;0.95;;;22.30;44.00;;;;;;5051205;28;20251;-56
2021/09/24 06:30:39;;;;;;;5.28;1.30;;;22.30;44.00;;;;;;5050941;28;20247;-48
2021/09/24 06:33:09;;;;;;;2.95;1.13;;;22.30;43.60;;;;;;5061819;28;20198;-48
2021/09/24 06:35:40;;;;;;;4.32;1.80;;;22.20;43.50;;;;;;5067670;28;20187;-52
2021/09/24 06:38:10;;;;;;;4.45;1.17;;;22.20;43.40;;;;;;5070746;28;20215;-57
2021/09/24 06:40:45;;;;;;;3.38;1.08;;;22.20;43.30;;;;;;5071138;28;20219;-52
2021/09/24 06:43:16;;;;;;;4.28;1.33;;;22.20;43.20;;;;;;5070661;28;20294;-49
2021/09/24 06:45:46;;;;;;;3.20;1.05;;;22.20;43.30;;;;;;5070632;28;20241;-52
2021/09/24 06:48:17;;;;;;;3.42;1.30;;;22.10;43.60;;;;;;5071219;28;20264;-48
2021/09/24 06:50:47;;;;;;;4.25;1.17;;;22.10;43.80;;;;;;5070659;28;20249;-58
2021/09/24 06:53:18;;;;;;;3.05;1.40;;;22.10;44.00;;;;;;5070440;28;20222;-53
2021/09/24 06:55:50;;;;;;;4.00;1.20;;;22.10;44.30;;;;;;5070742;28;20279;-59
2021/09/24 06:58:20;;;;;;;2.63;1.40;;;22.10;44.50;;;;;;5070860;28;20214;-52
2021/09/24 07:00:51;;;;;;;4.03;1.40;;;22.10;44.60;;;;;;5070385;28;20272;-46
2021/09/24 07:03:21;;;;;;;5.85;1.70;;;22.00;45.20;;;;;;5070372;28;20230;-50
2021/09/24 07:05:52;;;;;;;4.97;1.60;;;22.00;44.70;;;;;;5070557;28;20230;-47
2021/09/24 07:08:22;;;;;;;4.95;1.75;;;22.00;44.70;;;;;;5070781;28;20250;-53
2021/09/24 07:10:55;;;;;;;5.53;1.70;;;22.00;44.80;;;;;;5070728;28;20237;-53
2021/09/24 07:13:25;;;;;;;4.50;2.17;;;21.90;44.80;;;;;;5071049;28;20276;-49
2021/09/24 07:15:58;;;;;;;5.07;2.17;;;21.90;45.00;;;;;;5070894;28;20226;-47
2021/09/24 07:18:29;;;;;;;5.10;2.17;;;21.90;45.00;;;;;;5070885;28;20246;-52
2021/09/24 07:20:59;;;;;;;3.90;2.22;;;21.90;45.00;;;;;;5071546;28;20230;-55
2021/09/24 07:23:30;;;;;;;4.95;1.80;;;21.80;45.00;;;;;;5074578;28;20666;-46
2021/09/24 07:26:02;;;;;;;5.05;2.10;;;21.80;45.10;;;;;;5074243;28;20627;-53
2021/09/24 07:28:32;;;;;;;4.70;1.80;;;21.80;45.10;;;;;;5073748;28;20264;-46
2021/09/24 07:31:03;;;;;;;7.60;2.33;;;21.80;45.20;;;;;;5074582;28;20738;-51
2021/09/24 07:33:33;;;;;;;5.00;2.78;;;21.70;45.10;;;;;;5074648;28;20702;-47
2021/09/24 07:36:04;;;;;;;4.72;2.10;;;21.70;45.20;;;;;;5074067;28;20596;-49
2021/09/24 07:38:34;;;;;;;4.15;1.98;;;21.70;45.20;;;;;;5073792;28;20706;-48
2021/09/24 07:41:06;;;;;;;4.32;1.90;;;21.70;45.20;;;;;;5073871;28;20630;-46
2021/09/24 07:43:37;;;;;;;5.03;2.25;;;21.60;45.10;;;;;;5073740;28;20257;-50
2021/09/24 07:46:07;;;;;;;4.13;2.25;;;21.60;45.20;;;;;;5074455;28;20198;-58
2021/09/24 07:48:41;;;;;;;7.40;2.28;;;21.50;45.10;;;;;;5074421;28;20246;-46
2021/09/24 07:51:11;;;;;;;3.80;1.95;;;21.50;45.10;;;;;;5073963;28;20230;-47
2021/09/24 07:53:41;;;;;;;5.47;1.90;;;21.50;45.10;;;;;;5073816;28;20239;-49
2021/09/24 07:56:14;;;;;;;3.80;1.77;;;21.40;45.10;;;;;;5074227;28;20256;-46
2021/09/24 07:58:44;;;;;;;3.90;1.73;;;21.40;45.20;;;;;;5073802;28;20250;-47
2021/09/24 08:01:15;;;;;;;3.42;1.88;;;21.40;45.10;;;;;;5073456;28;20243;-47
2021/09/24 08:03:45;;;;;;;5.90;1.88;;;21.40;45.10;;;;;;5073413;28;20199;-59
2021/09/24 08:06:16;;;;;;;6.50;2.08;;;21.40;45.20;;;;;;5073131;28;20259;-45
2021/09/24 08:08:46;;;;;;;2.58;1.48;;;21.30;45.20;;;;;;5073044;28;20717;-54
2021/09/24 08:11:19;;;;;;;4.15;1.92;;;21.30;45.30;;;;;;5073676;28;20234;-49
2021/09/24 08:13:49;;;;;;;2.78;1.70;;;21.30;45.30;;;;;;5073657;28;20218;-46
2021/09/24 08:16:20;;;;;;;3.70;1.73;;;21.30;45.30;;;;;;5073134;28;20234;-49
2021/09/24 08:18:50;;;;;;;5.30;1.80;;;21.20;45.20;;;;;;5072695;28;20257;-54
2021/09/24 08:21:22;;;;;;;3.05;1.67;;;21.20;45.20;;;;;;5073665;28;20266;-46
2021/09/24 08:23:53;;;;;;;3.95;1.70;;;21.20;45.20;;;;;;5073791;28;20591;-53
2021/09/24 08:26:28;;;;;;;2.65;1.60;;;21.10;45.20;;;;;;5073576;28;20253;-46
2021/09/24 08:28:59;;;;;;;2.55;1.50;;;21.10;45.20;;;;;;5073728;28;20246;-47
2021/09/24 08:31:29;;;;;;;3.83;1.85;;;21.10;45.30;;;;;;5073044;28;20234;-46
2021/09/24 08:33:59;;;;;;;3.42;1.50;;;21.00;45.30;;;;;;5072482;28;20307;-54
2021/09/24 08:36:30;;;;;;;4.70;1.60;;;21.00;45.40;;;;;;5069888;28;20278;-50
2021/09/24 08:39:00;;;;;;;3.03;1.85;;;21.00;45.50;;;;;;5072801;28;20246;-46
2021/09/24 08:41:33;;;;;;;2.92;1.52;;;21.00;45.50;;;;;;5069627;28;20230;-46
2021/09/24 08:44:03;;;;;;;2.38;1.35;;;20.90;45.50;;;;;;5051749;28;20282;-47
2021/09/24 08:46:34;;;;;;;2.92;1.35;;;20.90;45.50;;;;;;5052794;28;20199;-55
2021/09/24 08:49:05;;;;;;;3.00;1.48;;;20.90;45.60;;;;;;5051843;28;20314;-46
2021/09/24 08:51:36;;;;;;;3.20;1.52;;;20.90;45.60;;;;;;5051992;28;20704;-51
2021/09/24 08:54:06;;;;;;;3.08;1.58;;;20.80;45.50;;;;;;5051420;28;20199;-46
2021/09/24 08:56:39;;;;;;;4.15;1.52;;;20.80;45.60;;;;;;5052322;28;20231;-45
2021/09/24 08:59:09;;;;;;;3.30;1.55;;;20.80;45.50;;;;;;5052308;28;20258;-48
2021/09/24 09:01:42;;;;;;;3.42;1.52;;;20.80;45.60;;;;;;5067283;28;20230;-50
2021/09/24 09:04:12;;;;;;;3.70;1.45;;;20.80;45.60;;;;;;5069725;28;20256;-47
2021/09/24 09:06:43;;;;;;;2.75;1.60;;;20.70;45.60;;;;;;5072179;28;20237;-47
2021/09/24 09:09:13;;;;;;;2.53;1.58;;;20.70;45.60;;;;;;5072683;28;20269;-53
2021/09/24 09:11:46;;;;;;;2.60;1.30;;;20.70;45.60;;;;;;5072444;28;20226;-47
2021/09/24 09:14:16;;;;;;;3.08;1.60;;;20.60;45.60;;;;;;5072076;28;20226;-48
2021/09/24 09:16:47;;;;;;;1.73;1.10;;;20.60;45.70;;;;;;5071720;28;20638;-46
2021/09/24 09:19:17;;;;;;;1.83;1.40;;;20.60;45.70;;;;;;5069218;28;20241;-46
2021/09/24 09:21:48;;;;;;;3.50;1.60;;;20.60;45.80;;;;;;5071471;28;20198;-46
2021/09/24 09:24:19;;;;;;;2.55;1.40;;;20.50;45.80;;;;;;5069568;28;20222;-47
2021/09/24 09:26:54;;;;;;;1.88;1.25;;;20.50;45.80;;;;;;5071746;28;20246;-46
2021/09/24 09:29:25;;;;;;;2.55;1.40;;;20.50;45.80;;;;;;5070514;28;20206;-45
2021/09/24 09:32:02;;;;;;;2.13;1.30;;;20.50;45.90;;;;;;5067057;28;20254;-48
2021/09/24 09:34:35;;;;;;;1.30;1.15;;;20.50;45.90;;;;;;5069787;28;20352;-48
2021/09/24 09:37:17;;;;;;;2.78;1.50;;;20.40;45.90;;;;;;5068406;28;20187;-49
2021/09/24 09:39:47;;;;;;;2.72;1.30;;;20.40;46.00;;;;;;5068607;28;20226;-47
2021/09/24 09:42:20;;;;;;;3.35;1.48;;;20.40;45.90;;;;;;5070685;28;20215;-52
2021/09/24 09:44:50;;;;;;;2.30;1.02;;;20.40;46.00;;;;;;5068179;28;20722;-48
2021/09/24 09:47:32;;;;;;;2.38;1.20;;;20.30;46.00;;;;;;5071192;28;20229;-45
2021/09/24 09:50:10;;;;;;;2.28;1.20;;;20.30;46.00;;;;;;5071292;28;20230;-46
2021/09/24 09:53:01;;;;;;;2.78;1.38;;;20.30;46.10;;;;;;5071149;28;20249;-47
2021/09/24 09:55:31;;;;;;;3.60;1.48;;;20.20;46.00;;;;;;5069079;28;20229;-46
2021/09/24 09:58:06;;;;;;;1.90;1.10;;;20.20;46.00;;;;;;5071081;28;20702;-50
2021/09/24 10:00:39;;;;;;;1.98;1.42;;;20.20;46.10;;;;;;5071129;28;20191;-46
2021/09/24 10:03:11;;;;;;;2.35;1.20;;;20.20;46.10;;;;;;5069039;28;20213;-53
2021/09/24 10:05:42;;;;;;;2.78;1.33;;;20.20;46.20;;;;;;5070707;28;20230;-45
2021/09/24 10:08:26;;;;;;;2.42;1.20;;;20.20;46.20;;;;;;5070593;28;20666;-48
2021/09/24 10:11:00;;;;;;;1.70;1.30;;;20.10;46.20;;;;;;5069922;28;20197;-49
2021/09/24 10:13:33;;;;;;;1.60;0.95;;;20.10;46.20;;;;;;5069258;28;20253;-46
2021/09/24 10:16:04;;;;;;;2.25;1.27;;;20.10;46.30;;;;;;5070401;28;20265;-45
2021/09/24 10:18:35;;;;;;;1.80;1.10;;;20.00;46.30;;;;;;5070554;28;20238;-46
2021/09/24 10:21:05;;;;;;;2.25;1.40;;;20.00;46.30;;;;;;5068047;28;20268;-47
2021/09/24 10:23:36;;;;;;;2.40;1.20;;;20.00;46.40;;;;;;5070481;28;20214;-46
2021/09/24 10:26:10;;;;;;;1.65;1.00;;;20.00;46.40;;;;;;5070225;28;20221;-47
2021/09/24 10:28:42;;;;;;;2.25;1.20;;;20.00;46.40;;;;;;5070030;28;20250;-46
2021/09/24 10:31:19;;;;;;;2.33;1.30;;;19.90;46.40;;;;;;5069538;28;20230;-45
2021/09/24 10:33:51;;;;;;;1.30;1.08;;;19.90;46.40;;;;;;5069016;28;20253;-45
2021/09/24 10:36:42;;;;;;;3.05;1.10;;;19.90;46.50;;;;;;5070219;28;20245;-45
2021/09/24 10:39:47;;;;;;;2.67;1.23;;;19.90;46.60;;;;;;5068179;28;20246;-46
2021/09/24 10:42:47;;;;;;;1.98;1.13;;;19.80;46.50;;;;;;5069327;28;20222;-46
2021/09/24 10:45:21;;;;;;;1.77;1.20;;;19.80;46.60;;;;;;5069271;28;20191;-55
2021/09/24 10:48:00;;;;;;;2.88;1.13;;;19.80;46.60;;;;;;5068147;28;20508;-47
2021/09/24 10:51:08;;;;;;;1.75;1.23;;;19.80;46.60;;;;;;5067889;28;20226;-53
2021/09/24 10:53:49;;;;;;;2.05;1.30;;;19.70;46.60;;;;;;5068825;28;20246;-46
2021/09/24 10:56:30;;;;;;;2.88;1.30;;;19.70;46.60;;;;;;5071020;28;20218;-49
2021/09/24 10:59:01;;;;;;;2.65;1.30;;;19.70;46.60;;;;;;5073293;28;20242;-48
2021/09/24 11:01:39;;;;;;;1.98;0.93;;;19.70;46.60;;;;;;5073965;28;20298;-49
2021/09/24 11:04:14;;;;;;;2.33;1.10;;;19.60;46.60;;;;;;5073501;28;20226;-46
2021/09/24 11:06:48;;;;;;;1.10;0.80;;;19.60;46.60;;;;;;5074007;28;20602;-46
2021/09/24 11:09:19;;;;;;;2.30;1.23;;;19.60;46.60;;;;;;5073787;28;20293;-46
2021/09/24 11:11:50;;;;;;;1.30;0.90;;;19.60;46.60;;;;;;5071531;28;20250;-46
2021/09/24 11:14:31;;;;;;;1.70;1.00;;;19.60;46.70;;;;;;5073708;28;20301;-46
2021/09/24 11:17:04;;;;;;;2.13;1.27;;;19.60;46.70;;;;;;5073465;28;20229;-46
2021/09/24 11:19:45;;;;;;;1.92;1.15;;;19.60;46.70;;;;;;5072445;28;20222;-48
2021/09/24 11:22:25;;;;;;;1.23;0.90;;;19.50;46.60;;;;;;5070908;28;20769;-45
2021/09/24 11:25:10;;;;;;;1.67;1.00;;;19.50;46.70;;;;;;5071229;28;20227;-46
2021/09/24 11:27:41;;;;;;;3.17;1.25;;;19.40;46.60;;;;;;5071649;28;20222;-45
2021/09/24 11:30:17;;;;;;;1.35;0.90;;;19.40;46.60;;;;;;5072500;28;20282;-46
2021/09/24 11:32:50;;;;;;;3.35;0.98;;;19.40;46.60;;;;;;5069881;28;20262;-45
2021/09/24 11:35:22;;;;;;;2.40;1.00;;;19.40;46.70;;;;;;5072937;28;20345;-45
2021/09/24 11:37:53;;;;;;;2.67;1.17;;;19.40;46.70;;;;;;5070407;28;20694;-45
2021/09/24 11:40:23;;;;;;;1.90;0.95;;;19.40;46.80;;;;;;5071953;28;20238;-45
2021/09/24 11:42:57;;;;;;;2.50;1.10;;;19.40;46.80;;;;;;5073006;28;20195;-45
2021/09/24 11:45:29;;;;;;;1.92;1.10;;;19.40;46.80;;;;;;5070574;28;20834;-49
2021/09/24 11:48:02;;;;;;;1.92;1.17;;;19.30;46.80;;;;;;5072637;28;20211;-46
2021/09/24 11:50:33;;;;;;;1.98;1.10;;;19.30;46.80;;;;;;5068803;28;20285;-47
2021/09/24 11:53:03;;;;;;;2.22;1.08;;;19.30;46.80;;;;;;5070355;28;20623;-47
2021/09/24 11:55:34;;;;;;;2.85;1.33;;;19.30;46.80;;;;;;5073452;28;20261;-45
2021/09/24 11:58:11;;;;;;;2.35;1.20;;;19.30;46.80;;;;;;5071021;28;20247;-49
2021/09/24 12:00:44;;;;;;;1.33;0.80;;;19.20;46.80;;;;;;5070578;28;20702;-46
2021/09/24 12:03:18;;;;;;;1.85;1.00;;;19.20;46.80;;;;;;5072789;28;20663;-53
2021/09/24 12:06:04;;;;;;;1.35;1.00;;;19.20;46.80;;;;;;5071357;28;20447;-45
2021/09/24 12:08:39;;;;;;;1.83;0.98;;;19.20;46.90;;;;;;5070752;28;20211;-47
2021/09/24 12:11:10;;;;;;;1.50;0.95;;;19.20;46.90;;;;;;5072733;28;20197;-46
2021/09/24 12:13:43;;;;;;;0.90;0.70;;;19.20;46.90;;;;;;5070040;28;20735;-46
2021/09/24 12:16:13;;;;;;;1.33;1.10;;;19.10;46.90;;;;;;5072326;28;20222;-46
2021/09/24 12:18:53;;;;;;;1.63;1.00;;;19.10;47.00;;;;;;5072321;28;20249;-46
2021/09/24 12:21:25;;;;;;;1.00;0.77;;;19.10;47.00;;;;;;5070357;28;20241;-45
2021/09/24 12:23:58;;;;;;;1.77;1.00;;;19.10;47.00;;;;;;5072004;28;20238;-45
2021/09/24 12:26:35;;;;;;;1.77;0.88;;;19.10;47.00;;;;;;5072167;28;20603;-49
2021/09/24 12:29:08;;;;;;;2.00;0.93;;;19.10;47.10;;;;;;5070516;28;20625;-48
2021/09/24 12:31:40;;;;;;;2.10;0.93;;;19.10;47.10;;;;;;5072304;28;20191;-48
2021/09/24 12:34:13;;;;;;;1.67;0.80;;;19.00;47.10;;;;;;5071735;28;20222;-46
2021/09/24 12:37:01;;;;;;;2.10;1.10;;;19.00;47.10;;;;;;5073470;28;20187;-50
2021/09/24 12:39:32;;;;;;;1.15;0.90;;;19.10;47.20;;;;;;5073389;28;20198;-49
2021/09/24 12:42:05;;;;;;;1.20;0.80;;;19.00;47.10;;;;;;5073198;28;20604;-51
2021/09/24 12:44:36;;;;;;;1.70;1.05;;;19.00;47.10;;;;;;5073117;28;20207;-46
2021/09/24 12:47:07;;;;;;;1.17;0.80;;;19.00;47.20;;;;;;5072617;28;20248;-46
2021/09/24 12:49:39;;;;;;;1.58;0.70;;;19.00;47.20;;;;;;5072395;28;20257;-46
2021/09/24 12:52:10;;;;;;;1.25;0.88;;;18.90;47.20;;;;;;5073502;28;20277;-47
2021/09/24 12:54:40;;;;;;;2.63;1.02;;;18.90;47.20;;;;;;5073112;28;20258;-45
2021/09/24 12:57:16;;;;;;;1.88;1.05;;;18.90;47.30;;;;;;5073021;28;20655;-56
2021/09/24 12:59:49;;;;;;;2.05;0.82;;;18.90;47.30;;;;;;5072980;28;20684;-50
2021/09/24 13:02:20;;;;;;;1.33;0.73;;;18.90;47.30;;;;;;5073062;28;20601;-46
2021/09/24 13:04:52;;;;;;;1.17;0.80;;;18.90;47.30;;;;;;5072914;28;20195;-46
2021/09/24 13:07:22;;;;;;;1.67;0.80;;;18.90;47.30;;;;;;5072229;28;20285;-56
2021/09/24 13:10:02;;;;;;;1.40;0.90;;;18.80;47.30;;;;;;5072498;28;20191;-46
2021/09/24 13:12:32;;;;;;;2.30;0.90;;;18.80;47.30;;;;;;5072749;28;20562;-47